STAK1: Blue River, Stanley, KS

Data processed at Thu May 23 2019 23:50


All information presented herein is the property of the government of the United States of America and may be revised or deleted at any time without prior notice.
Dissemination of this information without the expressed written consent of the Public Affairs Office, Tulsa District U.S. Army Corps of Engineers is strictly prohibited.
These data are gathered electronically and, as presented, have not undergone any form of quality control. These data are not guaranteed to be valid or correct.
Go to home page.
Go to station list.
Go to home page.

Downstream station:


Previous Day
Next Day
Current Day
    
SHEF ID:       STAK1     BLUE R NR STANLEY, KS
STATION TYPE:  

               PRECIP     STAGE  RIV-FLOW  BAT-LOAD
                   in        ft       cfs      volt
              Ccp-Rev   Ccp-Rev   Ccp-Rev   Ccp-Rev
(US/Central)
05/23 00:00      0.00      7.21       521     12.83
05/23 01:00      0.00      7.15       504     12.83
05/23 02:00      0.00      6.95       452     12.83
05/23 03:00      0.00      6.77       407     12.77
05/23 04:00      0.00      6.58       363     12.77
05/23 05:00      0.00      6.45       334     12.77
05/23 06:00      0.00      6.34       310     12.71
05/23 07:00      0.00      6.25       291     12.71
05/23 08:00      0.00      6.17       275     12.95
05/23 09:00      0.00      6.09       259     13.30
05/23 10:00      0.00      6.02       246     13.30
05/23 11:00      0.00      5.95       233     13.48
05/23 12:00      0.00      5.89       222     13.36
05/23 13:00      0.00      5.84       213     13.30
05/23 14:00      0.00      5.79       204     13.36
05/23 15:00      0.00      5.74       195     13.18
05/23 16:00      0.00      5.69       187     13.12
05/23 17:00      0.00      5.65       180     13.12
05/23 18:00      0.00      5.60       172     13.00
05/23 19:00      0.00      5.57       168     13.00
05/23 20:00      0.00      5.54       163     12.89
05/23 21:00      0.00      5.50       157     12.89
05/23 22:00      0.00      5.47       152     12.89
05/23 23:00      0.00      5.44       148     12.83